Time;durP1;ratioP1;P1;durP2;ratioP2;P2;SDS_P1;SDS_P2;PMS_P1;PMS_P2;Temp;Humidity;BMP_temperature;BMP_pressure;BME280_temperature;BME280_humidity;BME280_pressure;Samples;Min_cycle;Max_cycle;Signal;HPM_P1;HPM_P2
2024/02/07 00:00:32;;;;;;;2.60;1.00;;;12.00;68.30;;;;;;4619664;30;20035;-87
2024/02/07 00:02:58;;;;;;;4.65;1.55;;;12.00;68.30;;;;;;4623163;30;20063;-86
2024/02/07 00:05:27;;;;;;;1.75;1.02;;;11.90;68.20;;;;;;4628441;30;20118;-88
2024/02/07 00:07:53;;;;;;;3.92;1.42;;;11.90;68.20;;;;;;4634687;30;20412;-86
2024/02/07 00:10:19;;;;;;;2.03;1.20;;;11.80;68.10;;;;;;4638619;30;20126;-86
2024/02/07 00:12:46;;;;;;;3.22;1.30;;;11.80;68.10;;;;;;4634210;30;20042;-88
2024/02/07 00:15:11;;;;;;;3.38;1.52;;;11.80;68.10;;;;;;4634132;30;20051;-87
2024/02/07 00:17:37;;;;;;;3.72;1.63;;;11.80;68.20;;;;;;4634762;30;20039;-88
2024/02/07 00:20:04;;;;;;;3.25;1.48;;;11.80;68.20;;;;;;4639215;30;20453;-87
2024/02/07 00:22:34;;;;;;;2.70;1.35;;;11.70;68.00;;;;;;4625044;30;20137;-90
2024/02/07 00:25:00;;;;;;;3.55;1.60;;;11.70;68.00;;;;;;4634532;30;20444;-88
2024/02/07 00:27:26;;;;;;;4.47;1.75;;;11.60;67.90;;;;;;4625540;30;20047;-88
2024/02/07 00:29:52;;;;;;;2.65;1.58;;;11.60;67.90;;;;;;4623263;30;20050;-90
2024/02/07 00:32:18;;;;;;;3.50;1.65;;;11.60;68.00;;;;;;4635484;30;20109;-90
2024/02/07 00:34:44;;;;;;;2.10;1.30;;;11.50;67.80;;;;;;4622325;30;20039;-88
2024/02/07 00:37:09;;;;;;;5.45;1.92;;;11.50;67.80;;;;;;4632704;30;20127;-87
2024/02/07 00:39:39;;;;;;;3.55;1.60;;;11.50;67.80;;;;;;4620273;30;20038;-87
2024/02/07 00:42:05;;;;;;;5.80;1.65;;;11.50;67.90;;;;;;4628363;30;20098;-88
2024/02/07 00:44:32;;;;;;;4.65;2.25;;;11.40;67.70;;;;;;4634300;30;20031;-88
2024/02/07 00:46:58;;;;;;;3.08;1.42;;;11.40;67.70;;;;;;4634267;30;20509;-90
2024/02/07 00:49:24;;;;;;;4.93;1.73;;;11.40;67.70;;;;;;4628430;30;20102;-84
2024/02/07 00:51:49;;;;;;;1.98;1.73;;;11.40;67.80;;;;;;4632778;30;20815;-84
2024/02/07 00:54:15;;;;;;;3.40;1.50;;;11.30;67.60;;;;;;4613466;30;20051;-84
2024/02/07 00:56:41;;;;;;;2.70;1.50;;;11.30;67.60;;;;;;4621499;30;20134;-87
2024/02/07 00:59:07;;;;;;;2.65;1.40;;;11.30;67.60;;;;;;4634984;30;20066;-85
2024/02/07 01:01:34;;;;;;;2.35;1.20;;;11.30;67.60;;;;;;4615299;30;20055;-86
2024/02/07 01:04:01;;;;;;;1.85;1.20;;;11.30;67.60;;;;;;4624844;30;20050;-85
2024/02/07 01:06:27;;;;;;;3.35;1.55;;;11.20;67.40;;;;;;4625977;30;20627;-86
2024/02/07 01:08:53;;;;;;;4.55;2.35;;;11.20;67.40;;;;;;4633862;30;20233;-86
2024/02/07 01:11:18;;;;;;;2.45;1.42;;;11.20;67.40;;;;;;4636241;30;20150;-86
2024/02/07 01:13:47;;;;;;;3.42;1.50;;;11.20;67.50;;;;;;4635197;30;20612;-86
2024/02/07 01:16:13;;;;;;;4.85;2.13;;;11.10;67.30;;;;;;4636557;30;20043;-86
2024/02/07 01:18:39;;;;;;;3.28;1.65;;;11.10;67.40;;;;;;4618257;30;20039;-86
2024/02/07 01:21:11;;;;;;;3.88;1.60;;;11.10;67.30;;;;;;4626767;30;20050;-86
2024/02/07 01:23:38;;;;;;;2.42;1.40;;;11.10;67.30;;;;;;4628955;30;20477;-86
2024/02/07 01:26:06;;;;;;;2.80;1.52;;;11.00;67.10;;;;;;4636016;30;20159;-86
2024/02/07 01:28:32;;;;;;;2.95;1.60;;;11.00;67.20;;;;;;4622766;30;20054;-86
2024/02/07 01:30:58;;;;;;;2.53;1.20;;;11.00;67.70;;;;;;4631886;30;20065;-86
2024/02/07 01:33:24;;;;;;;2.20;1.05;;;11.00;67.20;;;;;;4635471;30;20039;-86
2024/02/07 01:35:51;;;;;;;1.42;1.30;;;11.00;67.20;;;;;;4621078;30;20062;-86
2024/02/07 01:38:19;;;;;;;2.38;1.80;;;11.00;67.20;;;;;;4630772;30;20035;-87
2024/02/07 01:40:46;;;;;;;1.92;1.55;;;11.00;67.20;;;;;;4636408;30;20465;-84
2024/02/07 01:43:13;;;;;;;1.30;1.10;;;10.90;67.00;;;;;;4630275;30;20870;-86
2024/02/07 01:45:39;;;;;;;1.85;1.05;;;10.90;67.00;;;;;;4632504;30;20030;-86
2024/02/07 01:48:06;;;;;;;1.52;0.98;;;10.90;67.00;;;;;;4635613;30;20063;-86
2024/02/07 01:50:37;;;;;;;3.13;1.40;;;10.90;67.00;;;;;;4630784;30;20126;-85
2024/02/07 01:53:05;;;;;;;1.73;1.00;;;10.90;67.00;;;;;;4627969;30;20582;-86
2024/02/07 01:55:35;;;;;;;2.75;1.15;;;10.80;66.80;;;;;;4636632;30;20038;-86
2024/02/07 01:58:03;;;;;;;2.75;1.05;;;10.80;66.80;;;;;;4617833;30;20130;-85
2024/02/07 02:00:31;;;;;;;2.22;0.80;;;10.80;66.80;;;;;;4631151;30;20636;-86
2024/02/07 02:02:58;;;;;;;1.67;0.90;;;10.80;66.80;;;;;;4632659;30;20090;-86
2024/02/07 02:05:25;;;;;;;1.55;1.33;;;10.80;66.80;;;;;;4616794;30;20035;-88
2024/02/07 02:07:51;;;;;;;1.30;0.90;;;10.70;66.60;;;;;;4632141;30;20082;-86
2024/02/07 02:10:17;;;;;;;1.67;0.95;;;10.70;66.60;;;;;;4631367;30;20071;-86
2024/02/07 02:12:44;;;;;;;1.90;0.80;;;10.70;66.70;;;;;;4606525;30;20124;-86
2024/02/07 02:15:10;;;;;;;2.10;0.77;;;10.70;66.70;;;;;;4616055;30;20554;-85
2024/02/07 02:17:36;;;;;;;1.75;0.68;;;10.70;66.60;;;;;;4633215;30;20030;-88
2024/02/07 02:20:04;;;;;;;1.17;0.60;;;10.60;66.40;;;;;;4633104;30;20045;-86
2024/02/07 02:22:47;;;;;;;1.83;0.70;;;10.60;66.50;;;;;;4636142;30;20058;-86
2024/02/07 02:25:51;;;;;;;2.22;0.68;;;10.60;66.50;;;;;;4633382;30;20050;-87
2024/02/07 02:28:44;;;;;;;1.35;0.60;;;10.50;66.30;;;;;;4631734;30;20050;-87
2024/02/07 02:31:14;;;;;;;1.75;0.82;;;10.50;66.30;;;;;;4630792;30;20498;-87
2024/02/07 02:33:42;;;;;;;1.75;0.57;;;10.50;66.30;;;;;;4619151;30;20051;-87
2024/02/07 02:36:11;;;;;;;3.55;1.23;;;10.50;66.30;;;;;;4618354;30;20039;-82
2024/02/07 02:38:37;;;;;;;2.83;1.80;;;10.50;66.30;;;;;;4631623;30;20057;-84
2024/02/07 02:41:07;;;;;;;1.25;0.50;;;10.50;66.30;;;;;;4634873;30;20043;-87
2024/02/07 02:43:33;;;;;;;1.13;0.60;;;10.50;66.30;;;;;;4622589;30;20122;-87
2024/02/07 02:45:59;;;;;;;3.13;0.80;;;10.40;66.10;;;;;;4622449;30;20705;-88
2024/02/07 02:48:27;;;;;;;1.63;0.60;;;10.40;66.10;;;;;;4633120;30;20045;-86
2024/02/07 02:50:54;;;;;;;0.80;0.80;;;10.40;66.10;;;;;;4636322;30;20387;-87
2024/02/07 02:53:20;;;;;;;1.55;0.60;;;10.40;66.40;;;;;;4631896;30;20043;-88
2024/02/07 02:55:46;;;;;;;0.85;0.52;;;10.40;66.10;;;;;;4618816;30;20055;-87
2024/02/07 02:58:11;;;;;;;1.35;0.70;;;10.30;65.90;;;;;;4628816;30;20063;-86
2024/02/07 03:00:37;;;;;;;1.65;0.63;;;10.30;66.00;;;;;;4623077;30;20535;-81
2024/02/07 03:03:03;;;;;;;2.13;1.15;;;10.30;65.90;;;;;;4624042;30;20061;-88
2024/02/07 03:08:19;;;;;;;1.55;0.77;;;10.30;66.00;;;;;;4611544;30;20047;-92
2024/02/07 03:10:44;;;;;;;2.45;0.70;;;10.20;65.80;;;;;;4639849;30;20081;-89
2024/02/07 03:13:12;;;;;;;2.00;0.73;;;10.20;65.80;;;;;;4641962;30;20058;-88
2024/02/07 03:15:39;;;;;;;3.17;1.00;;;10.20;65.80;;;;;;4645653;30;20042;-89
2024/02/07 03:18:05;;;;;;;1.98;0.80;;;10.20;65.80;;;;;;4653663;30;20293;-88
2024/02/07 03:20:31;;;;;;;1.75;0.68;;;10.20;65.80;;;;;;4645570;30;20131;-89
2024/02/07 03:22:58;;;;;;;2.85;0.95;;;10.10;65.60;;;;;;4653294;30;20062;-91
2024/02/07 03:25:24;;;;;;;1.70;0.45;;;10.20;65.70;;;;;;4642733;30;20034;-85
2024/02/07 03:27:50;;;;;;;2.38;0.80;;;10.20;65.70;;;;;;4641276;30;20094;-86
2024/02/07 03:30:22;;;;;;;4.07;1.00;;;10.10;65.50;;;;;;4654521;30;20054;-87
2024/02/07 03:32:49;;;;;;;2.72;0.60;;;10.10;65.50;;;;;;4638442;30;20527;-87
2024/02/07 03:35:14;;;;;;;1.05;0.85;;;10.20;65.70;;;;;;4623065;30;20457;-86
2024/02/07 03:37:41;;;;;;;3.75;0.88;;;10.10;65.50;;;;;;4636093;30;20086;-87
2024/02/07 03:40:13;;;;;;;6.03;1.15;;;10.10;65.50;;;;;;4633786;30;20114;-86
2024/02/07 03:42:43;;;;;;;2.50;0.88;;;10.10;65.40;;;;;;4636691;30;20401;-85
2024/02/07 03:45:16;;;;;;;1.88;0.50;;;10.10;65.40;;;;;;4634537;30;20051;-87
2024/02/07 03:47:43;;;;;;;3.08;1.05;;;10.10;65.40;;;;;;4635364;30;20058;-87
2024/02/07 03:50:16;;;;;;;2.92;0.82;;;10.10;65.40;;;;;;4633969;30;20693;-87
2024/02/07 03:52:43;;;;;;;2.22;0.82;;;10.00;65.20;;;;;;4619871;30;20066;-86
2024/02/07 03:55:10;;;;;;;2.15;0.80;;;10.00;65.20;;;;;;4635774;30;20347;-88
2024/02/07 03:57:36;;;;;;;3.38;0.75;;;10.00;65.20;;;;;;4634120;30;20054;-89
2024/02/07 04:00:08;;;;;;;2.95;0.68;;;10.00;65.20;;;;;;4632115;30;20149;-87
2024/02/07 04:02:39;;;;;;;3.25;0.90;;;10.00;65.20;;;;;;4633990;30;20400;-89
2024/02/07 04:05:09;;;;;;;3.38;1.15;;;10.00;65.20;;;;;;4632608;30;20126;-87
2024/02/07 04:07:38;;;;;;;2.20;0.70;;;10.00;65.20;;;;;;4633453;30;20500;-86
2024/02/07 04:10:11;;;;;;;4.00;0.95;;;9.90;65.00;;;;;;4636562;30;20131;-85
2024/02/07 05:15:53;;;;;;;2.05;0.80;;;9.70;64.50;;;;;;4633074;30;20130;-86
2024/02/07 05:18:20;;;;;;;2.20;0.85;;;9.70;64.50;;;;;;4634001;30;20113;-87
2024/02/07 05:20:48;;;;;;;1.70;0.75;;;9.70;64.40;;;;;;4637344;30;20062;-86
2024/02/07 05:23:16;;;;;;;1.77;0.70;;;9.70;64.40;;;;;;4638438;30;20579;-84
2024/02/07 05:25:44;;;;;;;2.40;0.82;;;9.70;64.50;;;;;;4620597;30;20516;-85
2024/02/07 05:28:12;;;;;;;2.55;0.85;;;9.70;64.40;;;;;;4639432;30;20346;-85
2024/02/07 05:30:40;;;;;;;2.40;1.00;;;9.70;64.40;;;;;;4617383;30;20043;-86
2024/02/07 05:33:06;;;;;;;2.83;0.85;;;9.70;64.40;;;;;;4639200;30;20046;-84
2024/02/07 05:35:32;;;;;;;2.80;0.82;;;9.70;64.40;;;;;;4620990;30;20119;-85
2024/02/07 05:37:59;;;;;;;3.67;0.93;;;9.70;64.40;;;;;;4624202;30;20181;-87
2024/02/07 05:40:25;;;;;;;1.20;0.80;;;9.70;64.30;;;;;;4629645;30;20031;-86
2024/02/07 05:42:50;;;;;;;2.45;0.88;;;9.60;64.10;;;;;;4637307;30;20080;-87
2024/02/07 05:45:17;;;;;;;2.53;0.60;;;9.60;64.10;;;;;;4622604;30;20081;-85
2024/02/07 05:47:43;;;;;;;2.35;1.35;;;9.70;64.30;;;;;;4629558;30;20039;-78
2024/02/07 05:50:09;;;;;;;2.42;1.00;;;9.60;64.10;;;;;;4632901;30;20138;-88
2024/02/07 05:52:39;;;;;;;2.55;0.90;;;9.60;64.10;;;;;;4619320;30;20398;-87
2024/02/07 05:55:06;;;;;;;2.40;0.90;;;9.70;64.30;;;;;;4619669;30;20175;-85
2024/02/07 05:57:33;;;;;;;1.45;0.90;;;9.60;64.10;;;;;;4613437;30;20586;-86
2024/02/07 06:00:00;;;;;;;3.53;0.88;;;9.60;64.10;;;;;;4611836;30;20047;-86
2024/02/07 06:02:27;;;;;;;2.08;0.90;;;9.60;64.10;;;;;;4630788;30;20054;-85
2024/02/07 06:04:54;;;;;;;2.50;0.95;;;9.60;64.10;;;;;;4640245;30;20062;-84
2024/02/07 06:07:20;;;;;;;1.40;0.82;;;9.60;64.00;;;;;;4635342;30;20038;-82
2024/02/07 06:09:46;;;;;;;2.20;0.82;;;9.60;64.00;;;;;;4616709;30;20464;-82
2024/02/07 06:12:15;;;;;;;2.13;0.82;;;9.60;64.00;;;;;;4630659;30;20047;-82
2024/02/07 06:14:41;;;;;;;2.90;1.00;;;9.60;64.00;;;;;;4602020;30;20258;-81
2024/02/07 06:17:07;;;;;;;2.92;1.02;;;9.60;64.00;;;;;;4634289;30;20193;-82
2024/02/07 06:19:33;;;;;;;3.47;1.05;;;9.60;64.00;;;;;;4633232;30;20118;-80
2024/02/07 06:21:59;;;;;;;2.05;1.20;;;9.60;64.00;;;;;;4619147;30;20039;-87
2024/02/07 06:24:25;;;;;;;5.22;1.48;;;9.60;64.00;;;;;;4629906;30;20491;-87
2024/02/07 06:26:54;;;;;;;3.63;1.30;;;9.60;64.00;;;;;;4623386;30;20039;-86
2024/02/07 06:29:19;;;;;;;3.92;1.17;;;9.60;64.00;;;;;;4637979;30;20341;-88
2024/02/07 06:31:45;;;;;;;3.85;1.27;;;9.60;64.00;;;;;;4650580;30;20174;-91
2024/02/07 06:34:11;;;;;;;4.00;1.13;;;9.50;63.80;;;;;;4635511;30;20047;-88
2024/02/07 06:36:37;;;;;;;2.58;1.05;;;9.60;64.40;;;;;;4639387;30;20049;-88
2024/02/07 06:39:03;;;;;;;5.80;1.63;;;9.60;64.60;;;;;;4654947;30;20062;-89
2024/02/07 06:41:29;;;;;;;5.28;1.05;;;9.70;65.00;;;;;;4638982;30;20138;-90
2024/02/07 06:43:55;;;;;;;3.97;2.15;;;9.70;65.10;;;;;;4654662;30;20069;-85
2024/02/07 06:46:21;;;;;;;4.68;1.70;;;9.70;65.30;;;;;;4656958;30;20444;-78
2024/02/07 06:48:50;;;;;;;7.47;1.58;;;9.80;65.60;;;;;;4636353;30;20043;-86
2024/02/07 06:51:16;;;;;;;1.80;1.13;;;9.80;65.70;;;;;;4652459;30;20047;-85
2024/02/07 06:53:42;;;;;;;50.33;14.05;;;9.80;65.90;;;;;;4638790;30;20105;-86
2024/02/07 06:56:08;;;;;;;47.28;13.40;;;9.80;66.00;;;;;;4652862;30;20039;-82
2024/02/07 06:58:34;;;;;;;60.30;15.88;;;9.90;66.40;;;;;;4639300;30;20047;-85
2024/02/07 07:01:00;;;;;;;54.30;17.35;;;9.90;66.50;;;;;;4648138;30;20049;-83
2024/02/07 07:03:26;;;;;;;52.53;14.55;;;9.90;66.60;;;;;;4632227;30;20611;-84
2024/02/07 07:05:52;;;;;;;41.40;12.10;;;9.90;66.70;;;;;;4634710;30;20106;-85
2024/02/07 07:08:18;;;;;;;40.83;12.32;;;9.90;66.80;;;;;;4623994;30;20043;-82
2024/02/07 07:10:44;;;;;;;40.78;10.30;;;10.00;67.10;;;;;;4617791;30;20039;-83
2024/02/07 07:13:11;;;;;;;33.40;10.02;;;10.00;67.20;;;;;;4637322;30;20027;-84
2024/02/07 07:15:37;;;;;;;28.15;8.80;;;10.00;67.30;;;;;;4649781;30;20472;-84
2024/02/07 07:18:04;;;;;;;23.17;7.88;;;10.00;67.30;;;;;;4637441;30;20038;-82
2024/02/07 07:20:31;;;;;;;26.08;8.05;;;10.00;67.40;;;;;;4616476;30;20046;-81
2024/02/07 07:22:57;;;;;;;22.65;6.28;;;10.00;67.50;;;;;;4632062;30;20532;-81
2024/02/07 07:25:23;;;;;;;21.60;7.10;;;10.10;67.80;;;;;;4617472;30;20164;-80
2024/02/07 07:27:49;;;;;;;15.80;6.18;;;10.10;67.90;;;;;;4621866;30;20429;-79
2024/02/07 07:30:15;;;;;;;16.23;5.57;;;10.10;67.90;;;;;;4646558;30;20673;-82
2024/02/07 07:32:44;;;;;;;11.82;4.50;;;10.20;68.10;;;;;;4646800;30;20055;-80
2024/02/07 07:35:10;;;;;;;13.27;4.55;;;10.20;68.10;;;;;;4639180;30;20046;-81
2024/02/07 07:37:37;;;;;;;16.23;4.45;;;10.20;68.10;;;;;;4625259;30;20050;-84
2024/02/07 07:40:04;;;;;;;13.20;5.15;;;10.30;68.40;;;;;;4635320;30;20363;-85
2024/02/07 07:42:30;;;;;;;10.98;4.53;;;10.30;68.40;;;;;;4607938;30;20699;-83
2024/02/07 07:44:55;;;;;;;15.15;5.38;;;10.40;68.50;;;;;;4634496;30;20039;-83
2024/02/07 07:47:21;;;;;;;12.45;3.70;;;10.40;68.60;;;;;;4634845;30;20038;-81
2024/02/07 07:49:47;;;;;;;12.57;4.72;;;10.40;68.70;;;;;;4632846;30;20050;-83
2024/02/07 07:52:13;;;;;;;10.50;3.90;;;10.50;68.80;;;;;;4633179;30;20102;-82
2024/02/07 07:54:39;;;;;;;11.85;3.75;;;10.50;68.80;;;;;;4635280;30;20582;-81
2024/02/07 07:57:06;;;;;;;10.20;3.63;;;10.50;68.80;;;;;;4619255;30;20130;-84
2024/02/07 07:59:32;;;;;;;10.27;3.42;;;10.60;69.00;;;;;;4631175;30;20046;-84
2024/02/07 08:01:59;;;;;;;8.18;4.45;;;10.60;69.00;;;;;;4630191;30;20320;-84
2024/02/07 08:04:26;;;;;;;9.98;3.47;;;10.60;68.90;;;;;;4637449;30;20140;-85
2024/02/07 08:06:52;;;;;;;9.10;3.97;;;10.60;68.90;;;;;;4637268;30;20066;-85
2024/02/07 08:09:19;;;;;;;10.38;3.67;;;10.70;69.00;;;;;;4623936;30;20468;-86
2024/02/07 08:11:45;;;;;;;9.95;2.78;;;10.80;69.20;;;;;;4637739;30;20137;-87
2024/02/07 08:14:12;;;;;;;6.30;2.53;;;10.70;68.90;;;;;;4638302;30;20090;-83
2024/02/07 08:16:38;;;;;;;6.88;3.45;;;10.80;69.00;;;;;;4634444;30;20047;-82
2024/02/07 08:19:04;;;;;;;6.20;2.47;;;10.90;69.10;;;;;;4639633;30;20051;-83
2024/02/07 08:21:30;;;;;;;9.27;2.17;;;10.90;69.10;;;;;;4639991;30;20046;-85
2024/02/07 08:23:56;;;;;;;6.88;2.60;;;11.00;69.10;;;;;;4622873;30;20379;-84
2024/02/07 08:26:23;;;;;;;7.43;2.40;;;11.00;69.10;;;;;;4635698;30;20039;-82
2024/02/07 08:28:52;;;;;;;7.15;2.30;;;11.10;69.20;;;;;;4623087;30;20543;-81
2024/02/07 08:31:18;;;;;;;7.45;2.50;;;11.20;69.20;;;;;;4636874;30;20050;-82
2024/02/07 08:33:45;;;;;;;7.32;2.28;;;11.20;69.10;;;;;;4644467;30;20065;-83
2024/02/07 08:36:10;;;;;;;5.75;2.22;;;11.20;69.10;;;;;;4639467;30;20580;-84
2024/02/07 08:38:37;;;;;;;3.55;2.22;;;11.30;69.20;;;;;;4633099;30;20054;-82
2024/02/07 08:41:04;;;;;;;6.45;2.13;;;11.30;69.10;;;;;;4622826;30;20500;-80
2024/02/07 08:43:30;;;;;;;6.93;2.65;;;11.30;69.00;;;;;;4640752;30;20067;-84
2024/02/07 08:45:56;;;;;;;6.85;2.70;;;11.30;68.90;;;;;;4638136;30;20050;-86
2024/02/07 08:48:25;;;;;;;4.45;2.22;;;11.40;69.00;;;;;;4634616;30;20493;-85
2024/02/07 08:50:51;;;;;;;5.28;2.10;;;11.40;69.00;;;;;;4637477;30;20041;-85
2024/02/07 08:53:17;;;;;;;5.43;2.35;;;11.40;68.90;;;;;;4643027;30;20039;-84
2024/02/07 08:55:43;;;;;;;6.70;2.13;;;11.50;69.00;;;;;;4635207;30;20043;-86
2024/02/07 08:58:09;;;;;;;5.45;1.70;;;11.50;68.90;;;;;;4642776;30;20101;-83
2024/02/07 09:00:36;;;;;;;6.88;2.25;;;11.60;68.90;;;;;;4641015;30;20043;-85
2024/02/07 09:03:02;;;;;;;5.35;1.63;;;11.70;68.90;;;;;;4630112;30;20091;-84
2024/02/07 09:05:31;;;;;;;6.03;1.85;;;11.70;68.70;;;;;;4622760;30;20035;-85
2024/02/07 09:07:57;;;;;;;4.43;2.17;;;11.80;68.70;;;;;;4625599;30;20061;-85
2024/02/07 09:10:23;;;;;;;7.03;2.08;;;11.90;68.70;;;;;;4642975;30;20523;-87
2024/02/07 09:12:49;;;;;;;4.22;1.83;;;11.90;68.50;;;;;;4639706;30;20478;-81
2024/02/07 09:15:14;;;;;;;7.57;1.90;;;11.90;68.40;;;;;;4624442;30;20070;-80
2024/02/07 09:17:40;;;;;;;8.27;2.10;;;11.90;68.30;;;;;;4657205;30;20217;-82
2024/02/07 09:20:07;;;;;;;4.63;1.60;;;12.00;68.40;;;;;;4659329;30;20034;-83
2024/02/07 09:22:36;;;;;;;5.35;2.05;;;12.00;68.40;;;;;;4643558;30;20051;-82
2024/02/07 09:25:02;;;;;;;4.97;2.67;;;12.00;68.40;;;;;;4655334;30;20067;-82
2024/02/07 09:27:28;;;;;;;4.90;1.42;;;12.10;68.90;;;;;;4659260;30;20043;-84
2024/02/07 09:29:55;;;;;;;4.57;1.50;;;12.30;69.40;;;;;;4659447;30;20043;-84
2024/02/07 09:32:21;;;;;;;5.03;1.83;;;12.50;69.60;;;;;;4659629;30;20461;-84
2024/02/07 09:34:50;;;;;;;4.68;1.38;;;12.70;69.60;;;;;;4639647;30;20039;-85
2024/02/07 09:37:16;;;;;;;2.60;1.40;;;12.90;69.50;;;;;;4637263;30;20360;-82
2024/02/07 09:39:41;;;;;;;4.57;1.60;;;13.20;70.20;;;;;;4645956;30;20034;-83
2024/02/07 09:42:11;;;;;;;4.72;1.50;;;13.40;69.50;;;;;;4629335;30;20046;-83
2024/02/07 09:44:40;;;;;;;3.75;1.33;;;13.60;69.40;;;;;;4624797;30;20046;-83
2024/02/07 09:47:11;;;;;;;3.25;1.35;;;13.80;69.30;;;;;;4636637;30;20050;-82
2024/02/07 09:49:37;;;;;;;4.80;2.05;;;14.00;69.10;;;;;;4631107;30;20042;-84
2024/02/07 09:52:05;;;;;;;4.03;1.33;;;14.20;69.10;;;;;;4638323;30;20050;-86
2024/02/07 09:54:31;;;;;;;2.78;1.27;;;14.30;68.80;;;;;;4639221;30;20181;-82
2024/02/07 09:56:58;;;;;;;3.30;1.10;;;14.50;68.70;;;;;;4622835;30;20050;-84
2024/02/07 09:59:24;;;;;;;5.25;2.05;;;14.70;68.50;;;;;;4635904;30;20150;-82
2024/02/07 10:01:53;;;;;;;3.92;1.60;;;14.80;68.30;;;;;;4639585;30;20050;-83
2024/02/07 10:04:26;;;;;;;4.07;1.40;;;15.00;68.30;;;;;;4609357;30;20050;-84
2024/02/07 10:06:54;;;;;;;2.85;1.10;;;15.00;67.90;;;;;;4623894;30;20129;-82
2024/02/07 10:09:21;;;;;;;5.13;2.38;;;15.20;67.90;;;;;;4637597;30;20046;-84
2024/02/07 10:11:48;;;;;;;5.82;1.77;;;15.20;67.60;;;;;;4641676;30;20047;-81
2024/02/07 10:14:14;;;;;;;4.72;1.85;;;15.40;67.70;;;;;;4637189;30;20535;-79
2024/02/07 10:16:41;;;;;;;5.35;1.70;;;15.50;67.60;;;;;;4640166;30;20512;-83
2024/02/07 10:19:07;;;;;;;4.63;1.30;;;15.50;67.20;;;;;;4622375;30;20590;-82
2024/02/07 10:21:34;;;;;;;12.50;1.80;;;15.60;67.00;;;;;;4636953;30;20513;-83
2024/02/07 10:24:02;;;;;;;2.60;1.15;;;15.70;67.10;;;;;;4636323;30;20149;-85
2024/02/07 10:26:30;;;;;;;4.13;1.38;;;15.80;66.90;;;;;;4619157;30;20110;-83
2024/02/07 10:29:00;;;;;;;9.50;1.40;;;15.80;66.60;;;;;;4605943;30;20150;-83
2024/02/07 10:31:27;;;;;;;2.53;2.15;;;15.90;66.50;;;;;;4628072;30;20857;-83
2024/02/07 10:33:59;;;;;;;4.03;1.23;;;15.90;66.30;;;;;;4639969;30;20487;-85
2024/02/07 10:36:28;;;;;;;4.15;1.42;;;16.00;66.30;;;;;;4637637;30;20187;-82
2024/02/07 10:39:03;;;;;;;2.85;1.17;;;16.00;66.20;;;;;;4635463;30;20121;-80
2024/02/07 10:41:30;;;;;;;5.10;1.35;;;16.00;66.00;;;;;;4617924;30;20494;-81
2024/02/07 10:44:06;;;;;;;5.53;1.27;;;16.00;66.00;;;;;;4620584;30;20046;-81
2024/02/07 10:46:32;;;;;;;2.47;1.95;;;16.00;65.80;;;;;;4632285;30;20067;-80
2024/02/07 10:49:00;;;;;;;8.15;1.48;;;16.00;65.80;;;;;;4613594;30;20327;-85
2024/02/07 10:51:33;;;;;;;3.08;1.35;;;16.00;65.60;;;;;;4633154;30;20035;-83
2024/02/07 10:54:07;;;;;;;2.70;1.30;;;16.00;65.50;;;;;;4623397;30;20038;-85
2024/02/07 10:56:37;;;;;;;3.58;1.48;;;16.00;65.40;;;;;;4629114;30;20247;-84
2024/02/07 10:59:04;;;;;;;5.68;2.15;;;16.00;65.30;;;;;;4629120;30;20081;-87
2024/02/07 11:01:31;;;;;;;4.53;2.33;;;16.00;65.30;;;;;;4627649;30;20149;-85
2024/02/07 11:03:58;;;;;;;4.18;1.77;;;16.00;65.20;;;;;;4620716;30;20061;-83
2024/02/07 11:06:25;;;;;;;3.60;1.55;;;16.00;65.10;;;;;;4634543;30;20682;-84
2024/02/07 11:08:58;;;;;;;4.70;1.55;;;16.00;65.00;;;;;;4625553;30;20055;-82
2024/02/07 11:11:29;;;;;;;3.50;1.38;;;16.00;64.90;;;;;;4614400;30;20571;-87
2024/02/07 11:13:58;;;;;;;2.75;1.40;;;16.00;64.80;;;;;;4634399;30;20042;-85
2024/02/07 11:16:25;;;;;;;3.00;1.83;;;16.10;64.90;;;;;;4635306;30;20527;-83
2024/02/07 11:18:51;;;;;;;3.53;1.70;;;16.10;64.80;;;;;;4637718;30;20036;-82
2024/02/07 11:21:28;;;;;;;4.57;2.00;;;16.10;64.60;;;;;;4635727;30;20397;-83
2024/02/07 11:23:57;;;;;;;3.67;1.77;;;16.10;64.50;;;;;;4624541;30;20207;-84
2024/02/07 11:26:24;;;;;;;8.25;2.47;;;16.10;64.40;;;;;;4618853;30;20034;-87
2024/02/07 11:28:50;;;;;;;4.25;1.63;;;16.10;64.30;;;;;;4642974;30;20490;-84
2024/02/07 11:31:19;;;;;;;3.75;1.30;;;16.10;64.30;;;;;;4634301;30;20059;-85
2024/02/07 11:33:51;;;;;;;4.40;1.60;;;16.10;64.30;;;;;;4636665;30;20126;-84
2024/02/07 11:36:18;;;;;;;4.00;1.83;;;16.10;64.30;;;;;;4622020;30;20098;-82
2024/02/07 11:39:02;;;;;;;3.95;1.80;;;16.10;64.20;;;;;;4626899;30;20151;-86
2024/02/07 11:41:41;;;;;;;3.33;1.48;;;16.10;64.00;;;;;;4637326;30;20072;-87
2024/02/07 11:44:14;;;;;;;3.92;1.40;;;16.10;63.90;;;;;;4643623;30;20086;-86
2024/02/07 11:46:50;;;;;;;4.97;2.10;;;16.20;64.00;;;;;;4644865;30;20031;-84
2024/02/07 11:49:20;;;;;;;;;;;16.20;63.90;;;;;;4620316;30;20043;-83
2024/02/07 11:51:56;;;;;;;3.15;1.20;;;16.20;63.90;;;;;;4637816;30;19924;-84
2024/02/07 11:54:22;;;;;;;4.32;1.73;;;16.20;63.90;;;;;;4641220;30;20134;-85
2024/02/07 11:56:57;;;;;;;3.45;1.40;;;16.20;63.80;;;;;;4641333;30;20042;-82
2024/02/07 11:59:33;;;;;;;2.90;1.50;;;16.20;63.60;;;;;;4624109;30;20054;-83
2024/02/07 12:01:59;;;;;;;4.07;1.83;;;16.20;63.60;;;;;;4623171;30;20487;-85
2024/02/07 12:04:25;;;;;;;3.53;1.60;;;16.20;63.60;;;;;;4626404;30;20043;-86
2024/02/07 12:06:51;;;;;;;4.28;1.55;;;16.10;63.50;;;;;;4614399;30;20054;-84
2024/02/07 12:09:17;;;;;;;4.63;1.48;;;16.10;63.40;;;;;;4639262;30;20051;-86
2024/02/07 12:11:43;;;;;;;3.70;1.75;;;16.10;63.40;;;;;;4626925;30;20038;-88
2024/02/07 12:14:09;;;;;;;5.00;1.27;;;16.10;63.30;;;;;;4634191;30;20039;-85
2024/02/07 12:16:36;;;;;;;4.45;1.58;;;16.20;63.40;;;;;;4634183;30;20445;-83
2024/02/07 12:19:02;;;;;;;4.05;1.95;;;16.20;63.30;;;;;;4625326;30;20049;-82
2024/02/07 12:21:35;;;;;;;5.55;2.20;;;16.20;63.20;;;;;;4638122;30;20070;-82
2024/02/07 12:24:01;;;;;;;4.95;1.60;;;16.20;63.10;;;;;;4643805;30;20050;-82
2024/02/07 12:26:27;;;;;;;3.33;1.60;;;16.30;63.20;;;;;;4624632;30;20043;-83
2024/02/07 12:28:56;;;;;;;4.65;1.38;;;16.30;63.00;;;;;;4638511;30;20524;-82
2024/02/07 12:31:21;;;;;;;3.58;1.50;;;16.40;63.00;;;;;;4638586;30;20150;-84
2024/02/07 12:33:50;;;;;;;3.55;1.30;;;16.50;63.00;;;;;;4638113;30;20058;-84
2024/02/07 12:36:16;;;;;;;2.83;1.50;;;16.60;62.80;;;;;;4639382;30;20818;-84
2024/02/07 12:38:43;;;;;;;4.10;1.42;;;16.70;62.70;;;;;;4606774;30;20181;-84
2024/02/07 12:41:10;;;;;;;3.05;1.30;;;16.80;62.50;;;;;;4625117;30;20066;-85
2024/02/07 12:43:36;;;;;;;3.25;2.00;;;16.90;62.40;;;;;;4637930;30;20058;-85
2024/02/07 12:46:02;;;;;;;3.97;1.75;;;16.90;62.10;;;;;;4622161;30;20047;-82
2024/02/07 12:48:29;;;;;;;3.40;1.85;;;17.10;62.30;;;;;;4623191;30;20042;-85
2024/02/07 12:50:55;;;;;;;3.38;1.55;;;17.10;62.20;;;;;;4638001;30;20031;-82
2024/02/07 12:53:22;;;;;;;2.95;1.40;;;17.10;61.90;;;;;;4621928;30;20484;-84
2024/02/07 12:55:49;;;;;;;3.63;1.65;;;17.20;62.00;;;;;;4621658;30;20081;-83
2024/02/07 12:58:16;;;;;;;2.10;1.42;;;17.20;61.90;;;;;;4637486;30;20338;-84
2024/02/07 13:00:42;;;;;;;2.13;1.15;;;17.20;61.70;;;;;;4638992;30;20813;-84
2024/02/07 13:03:09;;;;;;;2.67;1.20;;;17.20;61.60;;;;;;4622701;30;20081;-81
2024/02/07 13:05:36;;;;;;;4.60;1.88;;;17.20;61.50;;;;;;4639186;30;20568;-81
2024/02/07 13:08:04;;;;;;;4.13;1.55;;;17.20;61.40;;;;;;4635251;30;20098;-82
2024/02/07 13:10:31;;;;;;;4.57;1.83;;;17.30;61.60;;;;;;4627412;30;20066;-85
2024/02/07 13:12:57;;;;;;;2.38;1.73;;;17.20;61.40;;;;;;4639367;30;20046;-84
2024/02/07 13:15:23;;;;;;;4.55;2.42;;;17.20;61.30;;;;;;4622073;30;20038;-82
2024/02/07 13:17:49;;;;;;;3.92;1.50;;;17.20;61.20;;;;;;4628172;30;20042;-83
2024/02/07 13:20:15;;;;;;;2.25;1.35;;;17.20;61.20;;;;;;4628806;30;20047;-81
2024/02/07 13:22:44;;;;;;;2.55;1.52;;;17.20;61.10;;;;;;4640343;30;20523;-82
2024/02/07 13:25:11;;;;;;;3.75;1.30;;;17.30;61.20;;;;;;4637865;30;20060;-82
2024/02/07 13:27:38;;;;;;;1.40;1.23;;;17.30;61.10;;;;;;4629265;30;20496;-86
2024/02/07 13:30:05;;;;;;;2.85;1.42;;;17.30;60.90;;;;;;4644975;30;20520;-87
2024/02/07 13:32:32;;;;;;;3.13;1.50;;;17.30;60.70;;;;;;4627541;30;20070;-93
2024/02/07 13:34:59;;;;;;;3.15;1.50;;;17.40;60.70;;;;;;4611287;30;20047;-86
2024/02/07 13:37:26;;;;;;;3.50;1.75;;;17.40;60.40;;;;;;4625356;30;20042;-78
2024/02/07 13:39:52;;;;;;;4.20;1.40;;;17.30;60.10;;;;;;4634622;30;20042;-84
2024/02/07 13:42:18;;;;;;;3.45;1.52;;;17.30;60.10;;;;;;4638923;30;20083;-85
2024/02/07 13:44:46;;;;;;;2.30;1.67;;;17.30;60.30;;;;;;4635793;30;20047;-84
2024/02/07 13:47:12;;;;;;;2.17;1.10;;;17.30;60.30;;;;;;4620059;30;20113;-85
2024/02/07 13:49:38;;;;;;;2.25;1.42;;;17.20;60.10;;;;;;4635430;30;20075;-81
2024/02/07 13:52:04;;;;;;;2.10;0.95;;;17.30;60.20;;;;;;4632617;30;20576;-85
2024/02/07 13:54:32;;;;;;;2.10;0.98;;;17.30;60.30;;;;;;4619143;30;20038;-86